sensor_id;sensor_type;location;lat;lon;timestamp;temperature;humidity
37998;DHT22;24079;51.824;4.682;2022-12-29T00:01:01;12.20;99.90
37998;DHT22;24079;51.824;4.682;2022-12-29T00:03:27;12.20;99.90
37998;DHT22;24079;51.824;4.682;2022-12-29T00:05:55;12.20;99.90
37998;DHT22;24079;51.824;4.682;2022-12-29T00:08:22;12.20;99.90
37998;DHT22;24079;51.824;4.682;2022-12-29T00:11:09;12.20;99.90
37998;DHT22;24079;51.824;4.682;2022-12-29T00:13:34;12.20;99.90
37998;DHT22;24079;51.824;4.682;2022-12-29T00:16:19;12.20;99.90
37998;DHT22;24079;51.824;4.682;2022-12-29T00:18:44;12.20;99.90
37998;DHT22;24079;51.824;4.682;2022-12-29T00:21:15;12.20;99.90
37998;DHT22;24079;51.824;4.682;2022-12-29T00:23:59;12.20;99.90
37998;DHT22;24079;51.824;4.682;2022-12-29T00:26:45;12.30;99.90
37998;DHT22;24079;51.824;4.682;2022-12-29T00:29:30;12.30;99.90
37998;DHT22;24079;51.824;4.682;2022-12-29T00:32:14;12.30;99.90
37998;DHT22;24079;51.824;4.682;2022-12-29T00:34:58;12.20;99.90
37998;DHT22;24079;51.824;4.682;2022-12-29T00:37:41;12.20;99.90
37998;DHT22;24079;51.824;4.682;2022-12-29T00:40:25;12.20;99.90
37998;DHT22;24079;51.824;4.682;2022-12-29T00:43:10;12.20;99.90
37998;DHT22;24079;51.824;4.682;2022-12-29T00:45:54;12.10;99.90
37998;DHT22;24079;51.824;4.682;2022-12-29T00:48:20;12.10;99.90
37998;DHT22;24079;51.824;4.682;2022-12-29T00:51:04;12.00;99.90
37998;DHT22;24079;51.824;4.682;2022-12-29T00:53:30;11.90;99.90
37998;DHT22;24079;51.824;4.682;2022-12-29T00:55:55;11.80;99.90
37998;DHT22;24079;51.824;4.682;2022-12-29T00:58:21;11.70;99.90
37998;DHT22;24079;51.824;4.682;2022-12-29T01:00:47;11.70;99.90
37998;DHT22;24079;51.824;4.682;2022-12-29T01:03:12;11.60;99.90
37998;DHT22;24079;51.824;4.682;2022-12-29T01:05:38;11.60;99.90
37998;DHT22;24079;51.824;4.682;2022-12-29T01:08:04;11.60;99.90
37998;DHT22;24079;51.824;4.682;2022-12-29T01:10:29;11.70;99.90
37998;DHT22;24079;51.824;4.682;2022-12-29T01:12:55;11.60;99.90
37998;DHT22;24079;51.824;4.682;2022-12-29T01:15:21;11.60;99.90
37998;DHT22;24079;51.824;4.682;2022-12-29T01:17:47;11.60;99.90
37998;DHT22;24079;51.824;4.682;2022-12-29T01:20:13;11.70;99.90
37998;DHT22;24079;51.824;4.682;2022-12-29T01:22:39;11.70;99.90
37998;DHT22;24079;51.824;4.682;2022-12-29T01:25:05;11.70;99.90
37998;DHT22;24079;51.824;4.682;2022-12-29T01:27:31;11.70;99.90
37998;DHT22;24079;51.824;4.682;2022-12-29T01:29:57;11.60;99.90
37998;DHT22;24079;51.824;4.682;2022-12-29T01:32:23;11.60;99.90
37998;DHT22;24079;51.824;4.682;2022-12-29T01:34:48;11.70;99.90
37998;DHT22;24079;51.824;4.682;2022-12-29T01:37:14;11.70;99.90
37998;DHT22;24079;51.824;4.682;2022-12-29T01:39:40;11.60;99.90
37998;DHT22;24079;51.824;4.682;2022-12-29T01:42:08;11.70;99.90
37998;DHT22;24079;51.824;4.682;2022-12-29T01:44:52;11.70;99.90
37998;DHT22;24079;51.824;4.682;2022-12-29T01:49:53;11.60;99.90
37998;DHT22;24079;51.824;4.682;2022-12-29T01:52:19;11.60;99.90
37998;DHT22;24079;51.824;4.682;2022-12-29T01:54:51;11.60;99.90
37998;DHT22;24079;51.824;4.682;2022-12-29T01:57:24;11.50;99.90
37998;DHT22;24079;51.824;4.682;2022-12-29T01:59:58;11.50;99.90
37998;DHT22;24079;51.824;4.682;2022-12-29T02:02:25;11.60;99.90
37998;DHT22;24079;51.824;4.682;2022-12-29T02:04:52;11.60;99.90
37998;DHT22;24079;51.824;4.682;2022-12-29T02:07:22;11.60;99.90
37998;DHT22;24079;51.824;4.682;2022-12-29T02:09:53;11.50;99.90
37998;DHT22;24079;51.824;4.682;2022-12-29T02:12:21;11.60;99.90
37998;DHT22;24079;51.824;4.682;2022-12-29T02:14:50;11.60;99.90
37998;DHT22;24079;51.824;4.682;2022-12-29T02:17:39;11.60;99.90
37998;DHT22;24079;51.824;4.682;2022-12-29T02:39:20;11.40;99.90
37998;DHT22;24079;51.824;4.682;2022-12-29T02:42:13;11.20;99.90
37998;DHT22;24079;51.824;4.682;2022-12-29T02:44:58;11.20;99.90
37998;DHT22;24079;51.824;4.682;2022-12-29T02:50:18;11.10;99.90
37998;DHT22;24079;51.824;4.682;2022-12-29T02:56:10;11.10;99.90
37998;DHT22;24079;51.824;4.682;2022-12-29T02:58:36;11.10;99.90
37998;DHT22;24079;51.824;4.682;2022-12-29T03:06:25;11.10;99.90
37998;DHT22;24079;51.824;4.682;2022-12-29T03:11:52;11.00;99.90
37998;DHT22;24079;51.824;4.682;2022-12-29T03:14:44;11.00;99.90
37998;DHT22;24079;51.824;4.682;2022-12-29T03:20:17;10.90;99.90
37998;DHT22;24079;51.824;4.682;2022-12-29T03:22:47;10.90;99.90
37998;DHT22;24079;51.824;4.682;2022-12-29T03:25:28;10.90;99.90
37998;DHT22;24079;51.824;4.682;2022-12-29T03:27:59;10.90;99.90
37998;DHT22;24079;51.824;4.682;2022-12-29T03:30:28;10.90;99.90
37998;DHT22;24079;51.824;4.682;2022-12-29T03:33:03;10.90;99.90
37998;DHT22;24079;51.824;4.682;2022-12-29T03:35:33;10.90;99.90
37998;DHT22;24079;51.824;4.682;2022-12-29T03:38:23;10.90;99.90
37998;DHT22;24079;51.824;4.682;2022-12-29T03:40:57;10.90;99.90
37998;DHT22;24079;51.824;4.682;2022-12-29T03:43:25;10.90;99.90
37998;DHT22;24079;51.824;4.682;2022-12-29T03:45:51;11.00;99.90
37998;DHT22;24079;51.824;4.682;2022-12-29T03:48:17;11.10;99.90
37998;DHT22;24079;51.824;4.682;2022-12-29T03:50:43;11.10;99.90
37998;DHT22;24079;51.824;4.682;2022-12-29T03:53:09;11.10;99.90
37998;DHT22;24079;51.824;4.682;2022-12-29T03:55:35;11.10;99.90
37998;DHT22;24079;51.824;4.682;2022-12-29T03:58:01;11.20;99.90
37998;DHT22;24079;51.824;4.682;2022-12-29T04:00:28;11.10;99.90
37998;DHT22;24079;51.824;4.682;2022-12-29T04:02:54;11.10;99.90
37998;DHT22;24079;51.824;4.682;2022-12-29T04:05:20;11.10;99.90
37998;DHT22;24079;51.824;4.682;2022-12-29T04:07:47;11.10;99.90
37998;DHT22;24079;51.824;4.682;2022-12-29T04:10:13;11.00;99.90
37998;DHT22;24079;51.824;4.682;2022-12-29T04:12:39;11.00;99.90
37998;DHT22;24079;51.824;4.682;2022-12-29T04:15:08;10.90;99.90
37998;DHT22;24079;51.824;4.682;2022-12-29T04:17:34;10.90;99.90
37998;DHT22;24079;51.824;4.682;2022-12-29T04:20:00;10.90;99.90
37998;DHT22;24079;51.824;4.682;2022-12-29T04:22:45;10.90;99.90
37998;DHT22;24079;51.824;4.682;2022-12-29T04:25:11;10.90;99.90
37998;DHT22;24079;51.824;4.682;2022-12-29T04:27:37;10.90;99.90
37998;DHT22;24079;51.824;4.682;2022-12-29T04:30:03;10.80;99.90
37998;DHT22;24079;51.824;4.682;2022-12-29T04:32:29;10.80;99.90
37998;DHT22;24079;51.824;4.682;2022-12-29T04:34:55;10.90;99.90
37998;DHT22;24079;51.824;4.682;2022-12-29T04:37:21;10.90;99.90
37998;DHT22;24079;51.824;4.682;2022-12-29T04:39:47;10.90;99.90
37998;DHT22;24079;51.824;4.682;2022-12-29T04:42:13;10.90;99.90
37998;DHT22;24079;51.824;4.682;2022-12-29T04:44:39;10.80;99.90
37998;DHT22;24079;51.824;4.682;2022-12-29T04:47:05;10.70;99.90
37998;DHT22;24079;51.824;4.682;2022-12-29T04:49:31;10.70;99.90
37998;DHT22;24079;51.824;4.682;2022-12-29T04:51:57;10.80;99.90
37998;DHT22;24079;51.824;4.682;2022-12-29T04:54:23;10.70;99.90
37998;DHT22;24079;51.824;4.682;2022-12-29T04:56:49;10.80;99.90
37998;DHT22;24079;51.824;4.682;2022-12-29T04:59:15;10.70;99.90
37998;DHT22;24079;51.824;4.682;2022-12-29T05:01:41;10.70;99.90
37998;DHT22;24079;51.824;4.682;2022-12-29T05:04:07;10.80;99.90
37998;DHT22;24079;51.824;4.682;2022-12-29T05:06:33;10.80;99.90
37998;DHT22;24079;51.824;4.682;2022-12-29T05:08:59;10.80;99.90
37998;DHT22;24079;51.824;4.682;2022-12-29T05:11:25;10.80;99.90
37998;DHT22;24079;51.824;4.682;2022-12-29T05:13:51;10.90;99.90
37998;DHT22;24079;51.824;4.682;2022-12-29T05:16:17;10.90;99.90
37998;DHT22;24079;51.824;4.682;2022-12-29T05:18:43;10.80;99.90
37998;DHT22;24079;51.824;4.682;2022-12-29T05:21:09;10.90;99.90
37998;DHT22;24079;51.824;4.682;2022-12-29T05:23:35;10.90;99.90
37998;DHT22;24079;51.824;4.682;2022-12-29T05:26:01;11.00;99.90
37998;DHT22;24079;51.824;4.682;2022-12-29T05:28:27;11.00;99.90
37998;DHT22;24079;51.824;4.682;2022-12-29T05:30:53;11.00;99.90
37998;DHT22;24079;51.824;4.682;2022-12-29T05:33:19;11.00;99.90
37998;DHT22;24079;51.824;4.682;2022-12-29T05:35:45;11.00;99.90
37998;DHT22;24079;51.824;4.682;2022-12-29T05:38:11;11.00;99.90
37998;DHT22;24079;51.824;4.682;2022-12-29T05:40:37;11.00;99.90
37998;DHT22;24079;51.824;4.682;2022-12-29T05:43:03;11.00;99.90
37998;DHT22;24079;51.824;4.682;2022-12-29T05:45:29;11.00;99.90
37998;DHT22;24079;51.824;4.682;2022-12-29T05:47:55;11.00;99.90
37998;DHT22;24079;51.824;4.682;2022-12-29T05:50:21;11.00;99.90
37998;DHT22;24079;51.824;4.682;2022-12-29T05:52:47;11.00;99.90
37998;DHT22;24079;51.824;4.682;2022-12-29T05:55:13;11.00;99.90
37998;DHT22;24079;51.824;4.682;2022-12-29T05:57:38;11.00;99.90
37998;DHT22;24079;51.824;4.682;2022-12-29T06:00:05;11.00;99.90
37998;DHT22;24079;51.824;4.682;2022-12-29T06:02:32;11.00;99.90
37998;DHT22;24079;51.824;4.682;2022-12-29T06:04:57;11.00;99.90
37998;DHT22;24079;51.824;4.682;2022-12-29T06:07:23;11.00;99.90
37998;DHT22;24079;51.824;4.682;2022-12-29T06:09:48;10.90;99.90
37998;DHT22;24079;51.824;4.682;2022-12-29T06:12:14;10.90;99.90
37998;DHT22;24079;51.824;4.682;2022-12-29T06:14:40;11.00;99.90
37998;DHT22;24079;51.824;4.682;2022-12-29T06:17:05;10.90;99.90
37998;DHT22;24079;51.824;4.682;2022-12-29T06:19:31;10.90;99.90
37998;DHT22;24079;51.824;4.682;2022-12-29T06:21:57;10.80;99.90
37998;DHT22;24079;51.824;4.682;2022-12-29T06:24:22;10.60;99.90
37998;DHT22;24079;51.824;4.682;2022-12-29T06:26:48;10.40;99.90
37998;DHT22;24079;51.824;4.682;2022-12-29T06:29:13;10.20;99.90
37998;DHT22;24079;51.824;4.682;2022-12-29T06:31:43;10.10;99.90
37998;DHT22;24079;51.824;4.682;2022-12-29T06:34:11;9.90;99.90
37998;DHT22;24079;51.824;4.682;2022-12-29T06:36:36;9.90;99.90
37998;DHT22;24079;51.824;4.682;2022-12-29T06:39:02;9.70;99.90
37998;DHT22;24079;51.824;4.682;2022-12-29T06:41:28;9.70;99.90
37998;DHT22;24079;51.824;4.682;2022-12-29T06:43:53;9.70;99.90
37998;DHT22;24079;51.824;4.682;2022-12-29T06:46:19;9.60;99.90
37998;DHT22;24079;51.824;4.682;2022-12-29T06:48:44;9.60;99.90
37998;DHT22;24079;51.824;4.682;2022-12-29T06:51:10;9.50;99.90
37998;DHT22;24079;51.824;4.682;2022-12-29T06:53:36;9.50;99.90
37998;DHT22;24079;51.824;4.682;2022-12-29T06:56:01;9.50;99.90
37998;DHT22;24079;51.824;4.682;2022-12-29T06:58:27;9.50;99.90
37998;DHT22;24079;51.824;4.682;2022-12-29T07:00:52;9.50;99.90
37998;DHT22;24079;51.824;4.682;2022-12-29T07:03:18;9.50;99.90
37998;DHT22;24079;51.824;4.682;2022-12-29T07:05:43;9.50;99.90
37998;DHT22;24079;51.824;4.682;2022-12-29T07:08:09;9.60;99.90
37998;DHT22;24079;51.824;4.682;2022-12-29T07:10:35;9.60;99.90
37998;DHT22;24079;51.824;4.682;2022-12-29T07:13:01;9.60;99.90
37998;DHT22;24079;51.824;4.682;2022-12-29T07:15:27;9.60;99.90
37998;DHT22;24079;51.824;4.682;2022-12-29T07:17:53;9.70;99.90
37998;DHT22;24079;51.824;4.682;2022-12-29T07:20:19;9.70;99.90
37998;DHT22;24079;51.824;4.682;2022-12-29T07:22:45;9.70;99.90
37998;DHT22;24079;51.824;4.682;2022-12-29T07:25:13;9.70;99.90
37998;DHT22;24079;51.824;4.682;2022-12-29T07:27:39;9.70;99.90
37998;DHT22;24079;51.824;4.682;2022-12-29T07:30:05;9.80;99.90
37998;DHT22;24079;51.824;4.682;2022-12-29T07:32:34;9.80;99.90
37998;DHT22;24079;51.824;4.682;2022-12-29T07:35:01;9.80;99.90
37998;DHT22;24079;51.824;4.682;2022-12-29T07:37:27;9.80;99.90
37998;DHT22;24079;51.824;4.682;2022-12-29T07:39:53;9.90;99.90
37998;DHT22;24079;51.824;4.682;2022-12-29T07:42:19;9.90;99.90
37998;DHT22;24079;51.824;4.682;2022-12-29T07:44:45;9.90;99.90
37998;DHT22;24079;51.824;4.682;2022-12-29T07:47:11;10.00;99.90
37998;DHT22;24079;51.824;4.682;2022-12-29T07:49:36;10.10;99.90
37998;DHT22;24079;51.824;4.682;2022-12-29T07:52:02;10.10;99.90
37998;DHT22;24079;51.824;4.682;2022-12-29T07:54:28;10.10;99.90
37998;DHT22;24079;51.824;4.682;2022-12-29T07:56:53;10.20;99.90
37998;DHT22;24079;51.824;4.682;2022-12-29T07:59:19;10.20;99.90
37998;DHT22;24079;51.824;4.682;2022-12-29T08:01:45;10.20;99.90
37998;DHT22;24079;51.824;4.682;2022-12-29T08:04:11;10.20;99.90
37998;DHT22;24079;51.824;4.682;2022-12-29T08:06:36;10.30;99.90
37998;DHT22;24079;51.824;4.682;2022-12-29T08:09:03;10.30;99.90
37998;DHT22;24079;51.824;4.682;2022-12-29T08:11:29;10.40;99.90
37998;DHT22;24079;51.824;4.682;2022-12-29T08:13:54;10.40;99.90
37998;DHT22;24079;51.824;4.682;2022-12-29T08:16:20;10.40;99.90
37998;DHT22;24079;51.824;4.682;2022-12-29T08:18:47;10.40;99.90
37998;DHT22;24079;51.824;4.682;2022-12-29T08:21:13;10.40;99.90
37998;DHT22;24079;51.824;4.682;2022-12-29T08:23:39;10.40;99.90
37998;DHT22;24079;51.824;4.682;2022-12-29T08:26:05;10.40;99.90
37998;DHT22;24079;51.824;4.682;2022-12-29T08:28:32;10.40;99.90
37998;DHT22;24079;51.824;4.682;2022-12-29T08:31:00;10.30;99.90
37998;DHT22;24079;51.824;4.682;2022-12-29T08:33:27;10.30;99.90
37998;DHT22;24079;51.824;4.682;2022-12-29T08:35:52;10.30;99.90
37998;DHT22;24079;51.824;4.682;2022-12-29T08:38:23;10.30;99.90
37998;DHT22;24079;51.824;4.682;2022-12-29T08:40:51;10.30;99.90
37998;DHT22;24079;51.824;4.682;2022-12-29T08:43:17;10.20;99.90
37998;DHT22;24079;51.824;4.682;2022-12-29T08:45:43;10.30;99.90
37998;DHT22;24079;51.824;4.682;2022-12-29T08:48:09;10.30;99.90
37998;DHT22;24079;51.824;4.682;2022-12-29T08:50:35;10.30;99.90
37998;DHT22;24079;51.824;4.682;2022-12-29T08:53:01;10.30;99.90
37998;DHT22;24079;51.824;4.682;2022-12-29T08:55:27;10.40;99.90
37998;DHT22;24079;51.824;4.682;2022-12-29T08:57:53;10.30;99.90
37998;DHT22;24079;51.824;4.682;2022-12-29T09:00:19;10.20;99.90
37998;DHT22;24079;51.824;4.682;2022-12-29T09:02:46;10.20;99.90
37998;DHT22;24079;51.824;4.682;2022-12-29T09:05:12;10.10;99.90
37998;DHT22;24079;51.824;4.682;2022-12-29T09:07:38;10.00;99.90
37998;DHT22;24079;51.824;4.682;2022-12-29T09:10:05;10.00;99.90
37998;DHT22;24079;51.824;4.682;2022-12-29T09:12:31;9.90;99.90
37998;DHT22;24079;51.824;4.682;2022-12-29T09:14:57;9.80;99.90
37998;DHT22;24079;51.824;4.682;2022-12-29T09:17:23;9.80;99.90
37998;DHT22;24079;51.824;4.682;2022-12-29T09:20:10;9.60;99.90
37998;DHT22;24079;51.824;4.682;2022-12-29T09:22:36;9.60;99.90
37998;DHT22;24079;51.824;4.682;2022-12-29T09:25:03;9.60;99.90
37998;DHT22;24079;51.824;4.682;2022-12-29T09:27:29;9.50;99.90
37998;DHT22;24079;51.824;4.682;2022-12-29T09:29:56;9.50;99.90
37998;DHT22;24079;51.824;4.682;2022-12-29T09:32:22;9.50;99.90
37998;DHT22;24079;51.824;4.682;2022-12-29T09:34:48;9.50;99.90
37998;DHT22;24079;51.824;4.682;2022-12-29T09:37:14;9.60;99.90
37998;DHT22;24079;51.824;4.682;2022-12-29T09:39:40;9.60;99.90
37998;DHT22;24079;51.824;4.682;2022-12-29T09:42:07;9.60;99.90
37998;DHT22;24079;51.824;4.682;2022-12-29T09:47:25;9.70;99.90
37998;DHT22;24079;51.824;4.682;2022-12-29T09:49:56;9.60;99.90
37998;DHT22;24079;51.824;4.682;2022-12-29T09:52:35;9.60;99.90
37998;DHT22;24079;51.824;4.682;2022-12-29T09:55:05;9.60;99.90
37998;DHT22;24079;51.824;4.682;2022-12-29T10:00:19;9.80;99.90
37998;DHT22;24079;51.824;4.682;2022-12-29T10:02:49;9.80;99.90
37998;DHT22;24079;51.824;4.682;2022-12-29T10:21:58;9.90;99.90
37998;DHT22;24079;51.824;4.682;2022-12-29T10:24:27;9.90;99.90
37998;DHT22;24079;51.824;4.682;2022-12-29T10:26:56;9.90;99.90
37998;DHT22;24079;51.824;4.682;2022-12-29T10:29:28;10.00;99.90
37998;DHT22;24079;51.824;4.682;2022-12-29T10:32:04;10.00;99.90
37998;DHT22;24079;51.824;4.682;2022-12-29T10:34:33;10.00;99.90
37998;DHT22;24079;51.824;4.682;2022-12-29T10:37:31;10.10;99.90
37998;DHT22;24079;51.824;4.682;2022-12-29T10:40:09;10.10;99.90
37998;DHT22;24079;51.824;4.682;2022-12-29T10:42:41;10.10;99.90
37998;DHT22;24079;51.824;4.682;2022-12-29T10:45:15;10.00;99.90
37998;DHT22;24079;51.824;4.682;2022-12-29T10:48:08;10.00;99.90
37998;DHT22;24079;51.824;4.682;2022-12-29T10:50:35;10.10;99.90
37998;DHT22;24079;51.824;4.682;2022-12-29T10:53:04;10.20;99.90
37998;DHT22;24079;51.824;4.682;2022-12-29T10:55:34;10.40;99.90
37998;DHT22;24079;51.824;4.682;2022-12-29T10:58:04;10.50;99.90
37998;DHT22;24079;51.824;4.682;2022-12-29T11:00:32;10.50;99.90
37998;DHT22;24079;51.824;4.682;2022-12-29T11:05:54;10.50;99.90
37998;DHT22;24079;51.824;4.682;2022-12-29T11:08:26;10.50;99.90
37998;DHT22;24079;51.824;4.682;2022-12-29T11:10:59;10.50;99.90
37998;DHT22;24079;51.824;4.682;2022-12-29T11:13:28;10.40;99.90
37998;DHT22;24079;51.824;4.682;2022-12-29T11:15:55;10.40;99.90
37998;DHT22;24079;51.824;4.682;2022-12-29T11:18:26;10.30;99.90
37998;DHT22;24079;51.824;4.682;2022-12-29T11:20:58;10.40;99.90
37998;DHT22;24079;51.824;4.682;2022-12-29T11:23:35;10.30;99.90
37998;DHT22;24079;51.824;4.682;2022-12-29T11:26:20;10.30;99.90
37998;DHT22;24079;51.824;4.682;2022-12-29T11:31:41;10.30;99.90
37998;DHT22;24079;51.824;4.682;2022-12-29T11:34:08;10.30;99.90
37998;DHT22;24079;51.824;4.682;2022-12-29T11:36:34;10.30;99.90
37998;DHT22;24079;51.824;4.682;2022-12-29T11:39:03;10.30;99.90
37998;DHT22;24079;51.824;4.682;2022-12-29T11:41:30;10.30;99.90
37998;DHT22;24079;51.824;4.682;2022-12-29T11:43:59;10.40;99.90
37998;DHT22;24079;51.824;4.682;2022-12-29T11:46:31;10.50;99.90
37998;DHT22;24079;51.824;4.682;2022-12-29T11:48:59;10.50;99.90
37998;DHT22;24079;51.824;4.682;2022-12-29T11:51:46;10.50;99.90
37998;DHT22;24079;51.824;4.682;2022-12-29T11:56:45;10.60;99.90
37998;DHT22;24079;51.824;4.682;2022-12-29T12:02:18;10.90;99.90
37998;DHT22;24079;51.824;4.682;2022-12-29T12:04:49;10.90;99.90
37998;DHT22;24079;51.824;4.682;2022-12-29T12:07:24;10.90;99.90
37998;DHT22;24079;51.824;4.682;2022-12-29T12:10:03;10.70;99.90
37998;DHT22;24079;51.824;4.682;2022-12-29T12:12:39;10.70;99.90
37998;DHT22;24079;51.824;4.682;2022-12-29T12:15:16;10.70;99.90
37998;DHT22;24079;51.824;4.682;2022-12-29T12:20:50;10.60;99.90
37998;DHT22;24079;51.824;4.682;2022-12-29T12:26:15;10.60;99.90
37998;DHT22;24079;51.824;4.682;2022-12-29T12:28:52;10.70;99.90
37998;DHT22;24079;51.824;4.682;2022-12-29T12:33:53;10.70;99.90
37998;DHT22;24079;51.824;4.682;2022-12-29T12:36:32;10.70;99.90
37998;DHT22;24079;51.824;4.682;2022-12-29T12:42:10;10.80;99.90
37998;DHT22;24079;51.824;4.682;2022-12-29T13:09:42;10.50;99.90
37998;DHT22;24079;51.824;4.682;2022-12-29T13:18:14;10.40;99.90
37998;DHT22;24079;51.824;4.682;2022-12-29T13:23:58;10.30;99.90
37998;DHT22;24079;51.824;4.682;2022-12-29T13:26:35;10.20;99.90
37998;DHT22;24079;51.824;4.682;2022-12-29T13:37:00;10.10;99.90
37998;DHT22;24079;51.824;4.682;2022-12-29T13:39:32;10.00;99.90
37998;DHT22;24079;51.824;4.682;2022-12-29T13:42:02;10.00;99.90
37998;DHT22;24079;51.824;4.682;2022-12-29T13:44:33;9.90;99.90
37998;DHT22;24079;51.824;4.682;2022-12-29T13:47:08;9.90;99.90
37998;DHT22;24079;51.824;4.682;2022-12-29T13:49:38;9.90;99.90
37998;DHT22;24079;51.824;4.682;2022-12-29T13:52:44;9.90;99.90
37998;DHT22;24079;51.824;4.682;2022-12-29T13:55:27;9.90;99.90
37998;DHT22;24079;51.824;4.682;2022-12-29T13:58:06;9.90;99.90
37998;DHT22;24079;51.824;4.682;2022-12-29T14:06:18;10.00;99.90
37998;DHT22;24079;51.824;4.682;2022-12-29T14:08:45;10.00;99.90
37998;DHT22;24079;51.824;4.682;2022-12-29T14:11:14;10.10;99.90
37998;DHT22;24079;51.824;4.682;2022-12-29T14:13:43;10.10;99.90
37998;DHT22;24079;51.824;4.682;2022-12-29T14:16:26;10.10;99.90
37998;DHT22;24079;51.824;4.682;2022-12-29T14:18:52;10.10;99.90
37998;DHT22;24079;51.824;4.682;2022-12-29T14:21:25;10.10;99.90
37998;DHT22;24079;51.824;4.682;2022-12-29T14:24:25;10.10;99.90
37998;DHT22;24079;51.824;4.682;2022-12-29T14:26:46;10.10;99.90
37998;DHT22;24079;51.824;4.682;2022-12-29T14:31:54;10.10;99.90
37998;DHT22;24079;51.824;4.682;2022-12-29T14:37:00;10.10;99.90
37998;DHT22;24079;51.824;4.682;2022-12-29T14:39:39;10.10;99.90
37998;DHT22;24079;51.824;4.682;2022-12-29T14:42:11;10.10;99.90
37998;DHT22;24079;51.824;4.682;2022-12-29T14:44:51;10.00;99.90
37998;DHT22;24079;51.824;4.682;2022-12-29T14:47:34;10.00;99.90
37998;DHT22;24079;51.824;4.682;2022-12-29T14:52:54;10.00;99.90
37998;DHT22;24079;51.824;4.682;2022-12-29T14:58:12;10.00;99.90
37998;DHT22;24079;51.824;4.682;2022-12-29T15:00:40;10.00;99.90
37998;DHT22;24079;51.824;4.682;2022-12-29T15:03:28;9.90;99.90
37998;DHT22;24079;51.824;4.682;2022-12-29T15:06:06;9.90;99.90
37998;DHT22;24079;51.824;4.682;2022-12-29T15:08:48;9.90;99.90
37998;DHT22;24079;51.824;4.682;2022-12-29T15:11:32;10.00;99.90
37998;DHT22;24079;51.824;4.682;2022-12-29T15:14:35;9.90;99.90
37998;DHT22;24079;51.824;4.682;2022-12-29T15:17:09;9.90;99.90
37998;DHT22;24079;51.824;4.682;2022-12-29T15:19:36;9.90;99.90
37998;DHT22;24079;51.824;4.682;2022-12-29T15:22:02;9.90;99.90
37998;DHT22;24079;51.824;4.682;2022-12-29T15:24:28;9.90;99.90
37998;DHT22;24079;51.824;4.682;2022-12-29T15:26:55;9.80;99.90
37998;DHT22;24079;51.824;4.682;2022-12-29T15:29:41;9.80;99.90
37998;DHT22;24079;51.824;4.682;2022-12-29T15:34:44;9.80;99.90
37998;DHT22;24079;51.824;4.682;2022-12-29T15:39:45;9.70;99.90
37998;DHT22;24079;51.824;4.682;2022-12-29T15:42:29;9.70;99.90
37998;DHT22;24079;51.824;4.682;2022-12-29T15:44:58;9.60;99.90
37998;DHT22;24079;51.824;4.682;2022-12-29T15:47:25;9.60;99.90
37998;DHT22;24079;51.824;4.682;2022-12-29T15:50:41;9.50;99.90
37998;DHT22;24079;51.824;4.682;2022-12-29T15:52:48;9.50;99.90
37998;DHT22;24079;51.824;4.682;2022-12-29T15:58:01;9.40;99.90
37998;DHT22;24079;51.824;4.682;2022-12-29T16:00:33;9.40;99.90
37998;DHT22;24079;51.824;4.682;2022-12-29T16:03:00;9.30;99.90
37998;DHT22;24079;51.824;4.682;2022-12-29T16:05:37;9.30;99.90
37998;DHT22;24079;51.824;4.682;2022-12-29T16:08:31;9.30;99.90
37998;DHT22;24079;51.824;4.682;2022-12-29T16:13:48;9.30;99.90
37998;DHT22;24079;51.824;4.682;2022-12-29T16:16:25;9.30;99.90
37998;DHT22;24079;51.824;4.682;2022-12-29T16:18:53;9.30;99.90
37998;DHT22;24079;51.824;4.682;2022-12-29T16:21:25;9.20;99.90
37998;DHT22;24079;51.824;4.682;2022-12-29T16:23:55;9.30;99.90
37998;DHT22;24079;51.824;4.682;2022-12-29T16:26:22;9.20;99.90
37998;DHT22;24079;51.824;4.682;2022-12-29T16:28:54;9.20;99.90
37998;DHT22;24079;51.824;4.682;2022-12-29T16:31:25;9.20;99.90
37998;DHT22;24079;51.824;4.682;2022-12-29T16:33:55;9.20;99.90
37998;DHT22;24079;51.824;4.682;2022-12-29T16:36:39;9.20;99.90
37998;DHT22;24079;51.824;4.682;2022-12-29T16:39:25;9.20;99.90
37998;DHT22;24079;51.824;4.682;2022-12-29T16:41:53;9.20;99.90
37998;DHT22;24079;51.824;4.682;2022-12-29T16:44:22;9.10;99.90
37998;DHT22;24079;51.824;4.682;2022-12-29T16:49:43;9.10;99.90
37998;DHT22;24079;51.824;4.682;2022-12-29T16:52:33;9.10;99.90
37998;DHT22;24079;51.824;4.682;2022-12-29T16:55:00;9.10;99.90
37998;DHT22;24079;51.824;4.682;2022-12-29T16:57:36;9.10;99.90
37998;DHT22;24079;51.824;4.682;2022-12-29T17:00:17;9.00;99.90
37998;DHT22;24079;51.824;4.682;2022-12-29T17:02:43;9.10;99.90
37998;DHT22;24079;51.824;4.682;2022-12-29T17:05:14;9.10;99.90
37998;DHT22;24079;51.824;4.682;2022-12-29T17:07:40;9.10;99.90
37998;DHT22;24079;51.824;4.682;2022-12-29T17:10:06;9.10;99.90
37998;DHT22;24079;51.824;4.682;2022-12-29T17:12:34;9.10;99.90
37998;DHT22;24079;51.824;4.682;2022-12-29T17:15:03;9.10;99.90
37998;DHT22;24079;51.824;4.682;2022-12-29T17:17:43;9.00;99.90
37998;DHT22;24079;51.824;4.682;2022-12-29T17:22:44;8.90;99.90
37998;DHT22;24079;51.824;4.682;2022-12-29T17:25:18;8.80;99.90
37998;DHT22;24079;51.824;4.682;2022-12-29T17:32:38;8.80;99.90
37998;DHT22;24079;51.824;4.682;2022-12-29T17:35:05;8.80;99.90
37998;DHT22;24079;51.824;4.682;2022-12-29T17:37:36;8.80;99.90
37998;DHT22;24079;51.824;4.682;2022-12-29T17:40:05;8.80;99.90
37998;DHT22;24079;51.824;4.682;2022-12-29T17:42:32;8.70;99.90
37998;DHT22;24079;51.824;4.682;2022-12-29T17:45:01;8.70;99.90
37998;DHT22;24079;51.824;4.682;2022-12-29T17:47:27;8.70;99.90
37998;DHT22;24079;51.824;4.682;2022-12-29T17:49:53;8.70;99.90
37998;DHT22;24079;51.824;4.682;2022-12-29T17:52:20;8.70;99.90
37998;DHT22;24079;51.824;4.682;2022-12-29T17:54:49;8.60;99.90
37998;DHT22;24079;51.824;4.682;2022-12-29T17:57:17;8.60;99.90
37998;DHT22;24079;51.824;4.682;2022-12-29T17:59:43;8.70;99.90
37998;DHT22;24079;51.824;4.682;2022-12-29T18:02:28;8.60;99.90
37998;DHT22;24079;51.824;4.682;2022-12-29T18:04:56;8.60;99.90
37998;DHT22;24079;51.824;4.682;2022-12-29T18:07:26;8.60;99.90
37998;DHT22;24079;51.824;4.682;2022-12-29T18:09:53;8.60;99.90
37998;DHT22;24079;51.824;4.682;2022-12-29T18:12:36;8.60;99.90
37998;DHT22;24079;51.824;4.682;2022-12-29T18:15:03;8.50;99.90
37998;DHT22;24079;51.824;4.682;2022-12-29T18:17:29;8.50;99.90
37998;DHT22;24079;51.824;4.682;2022-12-29T18:19:55;8.50;99.90
37998;DHT22;24079;51.824;4.682;2022-12-29T18:22:23;8.50;99.90
37998;DHT22;24079;51.824;4.682;2022-12-29T18:24:50;8.40;99.90
37998;DHT22;24079;51.824;4.682;2022-12-29T18:27:16;8.50;99.90
37998;DHT22;24079;51.824;4.682;2022-12-29T18:29:45;8.50;99.90
37998;DHT22;24079;51.824;4.682;2022-12-29T18:32:12;8.50;99.90
37998;DHT22;24079;51.824;4.682;2022-12-29T18:34:40;8.50;99.90
37998;DHT22;24079;51.824;4.682;2022-12-29T18:37:05;8.50;99.90